createdAt,value
2023-03-28T00:01:34.169Z,-4.27
2023-03-28T00:06:38.088Z,-4.31
2023-03-28T00:11:40.272Z,-4.35
2023-03-28T00:16:45.230Z,-4.38
2023-03-28T00:21:50.623Z,-4.40
2023-03-28T00:26:53.994Z,-4.41
2023-03-28T00:31:55.972Z,-4.39
2023-03-28T00:36:57.952Z,-4.38
2023-03-28T00:42:01.265Z,-4.36
2023-03-28T00:47:03.288Z,-4.36
2023-03-28T00:52:05.221Z,-4.33
2023-03-28T00:57:09.107Z,-4.24
2023-03-28T01:02:12.183Z,-4.11
2023-03-28T01:07:15.967Z,-3.95
2023-03-28T01:12:20.404Z,-3.77
2023-03-28T01:17:23.622Z,-3.59
2023-03-28T01:23:05.319Z,-3.43
2023-03-28T01:28:48.364Z,-3.24
2023-03-28T01:34:27.924Z,-3.02
2023-03-28T01:39:57.925Z,-2.83
2023-03-28T01:45:17.655Z,-2.66
2023-03-28T01:50:26.999Z,-2.55
2023-03-28T01:55:43.934Z,-2.48
2023-03-28T02:00:54.137Z,-2.43
2023-03-28T02:05:58.617Z,-2.37
2023-03-28T02:11:01.033Z,-2.33
2023-03-28T02:16:06.948Z,-2.28
2023-03-28T02:21:17.093Z,-2.24
2023-03-28T02:26:21.332Z,-2.19
2023-03-28T02:31:24.454Z,-2.14
2023-03-28T02:36:26.093Z,-2.08
2023-03-28T02:41:52.643Z,-2.02
2023-03-28T02:47:01.253Z,-1.97
2023-03-28T02:52:39.715Z,-1.91
2023-03-28T02:57:48.787Z,-1.85
2023-03-28T03:02:51.919Z,-1.80
2023-03-28T03:07:53.743Z,-1.74
2023-03-28T03:12:55.428Z,-1.69
2023-03-28T03:17:58.490Z,-1.65
2023-03-28T03:23:01.329Z,-1.59
2023-03-28T03:28:03.604Z,-1.54
2023-03-28T03:33:05.536Z,-1.50
2023-03-28T03:38:08.071Z,-1.44
2023-03-28T03:43:10.048Z,-1.40
2023-03-28T03:48:12.235Z,-1.36
2023-03-28T03:53:14.006Z,-1.31
2023-03-28T03:58:15.688Z,-1.27
2023-03-28T04:03:24.207Z,-1.24
2023-03-28T04:08:27.326Z,-1.19
2023-03-28T04:13:28.987Z,-1.13
2023-03-28T04:18:30.841Z,-1.08
2023-03-28T04:23:33.946Z,-1.03
2023-03-28T04:28:38.814Z,-1.00
2023-03-28T04:33:40.491Z,-0.98
2023-03-28T04:38:45.340Z,-0.95
2023-03-28T04:43:47.220Z,-0.89
2023-03-28T04:48:49.304Z,-0.85
2023-03-28T04:53:58.654Z,-0.78
2023-03-28T04:59:00.423Z,-0.71
2023-03-28T05:04:02.207Z,-0.63
2023-03-28T05:09:04.706Z,-0.53
2023-03-28T05:14:06.968Z,-0.39
2023-03-28T05:19:09.663Z,-0.24
2023-03-28T05:24:11.644Z,-0.05
2023-03-28T05:29:13.622Z,0.14
2023-03-28T05:34:15.393Z,0.26
2023-03-28T05:39:17.276Z,0.27
2023-03-28T05:44:19.089Z,0.24
2023-03-28T05:49:20.921Z,0.19
2023-03-28T05:54:22.699Z,0.15
2023-03-28T05:59:24.474Z,0.09
2023-03-28T06:04:27.597Z,0.09
2023-03-28T06:09:31.007Z,0.04
2023-03-28T06:14:32.975Z,-0.02
2023-03-28T06:19:35.821Z,-0.02
2023-03-28T06:24:39.078Z,0.02
2023-03-28T06:29:41.472Z,0.08
2023-03-28T06:34:43.454Z,0.17
2023-03-28T06:39:45.530Z,0.21
2023-03-28T06:44:47.828Z,0.22
2023-03-28T06:49:49.625Z,0.08
2023-03-28T06:54:51.786Z,-0.06
2023-03-28T06:59:53.773Z,-0.13
2023-03-28T07:04:56.050Z,-0.10
2023-03-28T07:09:58.132Z,0.04
2023-03-28T07:15:00.005Z,0.29
2023-03-28T07:20:03.104Z,0.52
2023-03-28T07:25:05.819Z,0.67
2023-03-28T07:30:10.158Z,0.99
2023-03-28T07:35:12.834Z,1.97
2023-03-28T07:40:16.046Z,3.33
2023-03-28T07:45:18.028Z,5.30
2023-03-28T07:50:19.822Z,8.36
2023-03-28T07:55:21.593Z,10.13
2023-03-28T08:00:23.941Z,8.89
2023-03-28T08:05:26.280Z,7.55
2023-03-28T08:10:28.425Z,7.46
2023-03-28T08:15:30.386Z,9.51
2023-03-28T08:20:33.124Z,11.77
2023-03-28T08:25:35.016Z,13.90
2023-03-28T08:30:37.167Z,12.40
2023-03-28T08:35:39.588Z,9.95
2023-03-28T08:40:51.152Z,7.73
2023-03-28T08:45:59.381Z,6.37
2023-03-28T08:51:16.106Z,5.39
2023-03-28T08:56:18.196Z,4.68
2023-03-28T09:01:22.794Z,4.11
2023-03-28T09:06:53.188Z,4.43
2023-03-28T09:12:04.821Z,7.08
2023-03-28T09:17:22.323Z,10.66
2023-03-28T09:22:44.205Z,10.87
2023-03-28T09:28:22.090Z,7.93
2023-03-28T09:33:30.117Z,6.03
2023-03-28T09:38:40.895Z,5.26
2023-03-28T09:43:53.230Z,6.06
2023-03-28T09:48:56.182Z,7.91
2023-03-28T09:53:58.306Z,8.25
2023-03-28T09:59:03.050Z,8.67
2023-03-28T10:04:15.725Z,12.59
2023-03-28T10:09:21.036Z,16.24
2023-03-28T10:14:37.967Z,18.82
2023-03-28T10:19:44.242Z,18.67
2023-03-28T10:24:47.881Z,17.31
2023-03-28T10:29:52.397Z,15.00
2023-03-28T10:35:08.611Z,12.67
2023-03-28T10:40:20.380Z,10.85
2023-03-28T10:45:34.994Z,9.30
2023-03-28T10:50:43.430Z,8.07
2023-03-28T10:56:00.067Z,7.04
2023-03-28T11:01:17.708Z,6.38
2023-03-28T11:06:28.167Z,6.25
2023-03-28T11:11:30.046Z,6.06
2023-03-28T11:16:47.179Z,5.67
2023-03-28T11:22:23.876Z,4.84
2023-03-28T11:27:42.441Z,4.98
2023-03-28T11:32:51.502Z,5.14
2023-03-28T11:38:21.913Z,4.79
2023-03-28T11:43:42.563Z,4.65
2023-03-28T11:49:11.458Z,4.87
2023-03-28T11:54:18.564Z,5.55
2023-03-28T11:59:28.318Z,5.50
2023-03-28T12:04:37.431Z,5.33
2023-03-28T12:09:58.823Z,5.33
2023-03-28T12:15:21.254Z,5.45
2023-03-28T12:20:32.372Z,5.20
2023-03-28T12:25:58.396Z,5.24
2023-03-28T12:31:32.770Z,5.26
2023-03-28T12:36:38.298Z,5.18
2023-03-28T12:41:40.785Z,4.66
2023-03-28T12:47:15.629Z,3.98
2023-03-28T12:52:34.319Z,3.73
2023-03-28T12:57:46.502Z,3.50
2023-03-28T13:03:05.306Z,3.36
2023-03-28T13:08:20.198Z,3.31
2023-03-28T13:13:59.115Z,3.20
2023-03-28T13:19:10.735Z,3.02
2023-03-28T13:24:24.923Z,3.01
2023-03-28T13:30:10.918Z,2.20
2023-03-28T13:35:44.961Z,1.16
2023-03-28T13:40:51.431Z,1.36
2023-03-28T13:46:02.584Z,1.72
2023-03-28T13:51:08.433Z,1.70
2023-03-28T13:56:24.424Z,1.54
2023-03-28T14:01:45.590Z,1.51
2023-03-28T14:06:50.580Z,1.48
2023-03-28T14:11:55.729Z,1.49
2023-03-28T14:17:01.284Z,1.52
2023-03-28T14:22:07.256Z,1.67
2023-03-28T14:27:14.521Z,2.12
2023-03-28T14:32:31.532Z,2.71
2023-03-28T14:37:34.598Z,2.73
2023-03-28T14:42:36.634Z,2.41
2023-03-28T14:47:41.969Z,2.19
2023-03-28T14:52:44.427Z,2.22
2023-03-28T14:57:50.605Z,2.18
2023-03-28T15:02:53.479Z,1.59
2023-03-28T15:08:00.921Z,1.22
2023-03-28T15:13:19.486Z,1.00
2023-03-28T15:18:28.324Z,0.74
2023-03-28T15:23:57.436Z,0.64
2023-03-28T15:29:00.748Z,0.63
2023-03-28T15:34:09.982Z,0.75
2023-03-28T15:39:26.196Z,0.84
2023-03-28T15:44:34.505Z,0.88
2023-03-28T15:49:37.774Z,0.83
2023-03-28T15:54:44.338Z,0.67
2023-03-28T15:59:50.703Z,0.46
2023-03-28T16:05:22.586Z,0.33
2023-03-28T16:10:25.287Z,0.20
2023-03-28T16:15:27.772Z,0.18
2023-03-28T16:20:29.650Z,0.11
2023-03-28T16:25:31.454Z,-0.00
2023-03-28T16:30:40.262Z,-0.14
2023-03-28T16:35:42.606Z,-0.27
2023-03-28T16:40:46.541Z,-0.35
2023-03-28T16:45:49.762Z,-0.40
2023-03-28T16:50:58.608Z,-0.48
2023-03-28T16:56:01.874Z,-0.54
2023-03-28T17:01:15.250Z,-0.59
2023-03-28T17:06:18.488Z,-0.61
2023-03-28T17:11:23.341Z,-0.66
2023-03-28T17:16:27.565Z,-0.69
2023-03-28T17:21:30.611Z,-0.70
2023-03-28T17:26:33.409Z,-0.67
2023-03-28T17:31:37.471Z,-0.63
2023-03-28T17:36:44.540Z,-0.59
2023-03-28T17:41:50.026Z,-0.55
2023-03-28T17:46:55.547Z,-0.49
2023-03-28T17:51:59.455Z,-0.44
2023-03-28T17:57:01.646Z,-0.43
2023-03-28T18:02:04.402Z,-0.46
2023-03-28T18:07:15.779Z,-0.50
2023-03-28T18:12:18.930Z,-0.51
2023-03-28T18:17:22.866Z,-0.51
2023-03-28T18:22:25.248Z,-0.48
2023-03-28T18:27:27.940Z,-0.46
2023-03-28T18:32:30.636Z,-0.47
2023-03-28T18:37:34.038Z,-0.56
2023-03-28T18:42:36.674Z,-0.69
2023-03-28T18:47:40.687Z,-0.83
2023-03-28T18:52:43.673Z,-0.97
2023-03-28T18:57:46.176Z,-1.09
2023-03-28T19:02:49.399Z,-1.21
2023-03-28T19:07:52.518Z,-1.33
2023-03-28T19:12:56.504Z,-1.44
2023-03-28T19:18:01.585Z,-1.54
2023-03-28T19:23:05.372Z,-1.64
2023-03-28T19:28:10.947Z,-1.72
2023-03-28T19:33:14.016Z,-1.77
2023-03-28T19:38:16.333Z,-1.84
2023-03-28T19:43:20.916Z,-1.92
2023-03-28T19:48:33.907Z,-2.01
2023-03-28T19:53:46.246Z,-2.12
2023-03-28T19:58:51.846Z,-2.23
2023-03-28T20:03:54.796Z,-2.34
2023-03-28T20:08:57.505Z,-2.46
2023-03-28T20:14:00.454Z,-2.56
2023-03-28T20:19:03.817Z,-2.65
2023-03-28T20:24:06.099Z,-2.73
2023-03-28T20:29:13.396Z,-2.79
2023-03-28T20:34:15.479Z,-2.82
2023-03-28T20:39:17.607Z,-2.86
2023-03-28T20:44:20.568Z,-2.89
2023-03-28T20:49:22.542Z,-2.92
2023-03-28T20:54:27.394Z,-2.94
2023-03-28T20:59:29.777Z,-2.98
2023-03-28T21:04:32.240Z,-3.01
2023-03-28T21:09:34.454Z,-3.02
2023-03-28T21:14:36.327Z,-3.07
2023-03-28T21:19:38.107Z,-3.14
2023-03-28T21:24:40.087Z,-3.21
2023-03-28T21:29:42.602Z,-3.28
2023-03-28T21:34:45.065Z,-3.34
2023-03-28T21:39:47.555Z,-3.39
2023-03-28T21:44:49.428Z,-3.42
2023-03-28T21:49:51.306Z,-3.44
2023-03-28T21:54:53.697Z,-3.47
2023-03-28T21:59:55.679Z,-3.52
2023-03-28T22:04:57.561Z,-3.57
2023-03-28T22:10:00.867Z,-3.59
2023-03-28T22:15:03.158Z,-3.65
2023-03-28T22:20:07.392Z,-3.71
2023-03-28T22:25:13.004Z,-3.75
2023-03-28T22:30:14.938Z,-3.81
2023-03-28T22:35:17.011Z,-3.87
2023-03-28T22:40:19.397Z,-3.95
2023-03-28T22:45:22.709Z,-4.06
2023-03-28T22:50:25.613Z,-4.17
2023-03-28T22:55:28.102Z,-4.26
2023-03-28T23:00:31.274Z,-4.36
2023-03-28T23:05:33.251Z,-4.45
2023-03-28T23:10:35.373Z,-4.52
2023-03-28T23:15:37.354Z,-4.57
2023-03-28T23:20:39.328Z,-4.64
2023-03-28T23:25:41.206Z,-4.73
2023-03-28T23:30:43.078Z,-4.82
2023-03-28T23:35:46.857Z,-4.89
2023-03-28T23:40:48.673Z,-4.96
2023-03-28T23:45:50.820Z,-5.04
2023-03-28T23:50:52.939Z,-5.13
2023-03-28T23:55:55.120Z,-5.21
